sensor_id;sensor_type;location;lat;lon;timestamp;P1;durP1;ratioP1;P2;durP2;ratioP2
63599;SDS011;49747;51.334;6.830;2022-12-07T00:00:55;12.55;;;7.28;;
63599;SDS011;49747;51.334;6.830;2022-12-07T00:05:57;9.98;;;6.88;;
63599;SDS011;49747;51.334;6.830;2022-12-07T00:08:24;10.27;;;7.43;;
63599;SDS011;49747;51.334;6.830;2022-12-07T00:10:50;11.43;;;7.47;;
63599;SDS011;49747;51.334;6.830;2022-12-07T00:13:17;10.85;;;7.20;;
63599;SDS011;49747;51.334;6.830;2022-12-07T00:15:44;11.85;;;7.03;;
63599;SDS011;49747;51.334;6.830;2022-12-07T00:18:11;9.52;;;6.97;;
63599;SDS011;49747;51.334;6.830;2022-12-07T00:20:37;10.52;;;6.68;;
63599;SDS011;49747;51.334;6.830;2022-12-07T00:23:04;11.40;;;6.70;;
63599;SDS011;49747;51.334;6.830;2022-12-07T00:25:30;11.40;;;7.35;;
63599;SDS011;49747;51.334;6.830;2022-12-07T00:27:57;10.30;;;6.38;;
63599;SDS011;49747;51.334;6.830;2022-12-07T00:30:23;9.85;;;7.40;;
63599;SDS011;49747;51.334;6.830;2022-12-07T00:32:50;10.32;;;7.15;;
63599;SDS011;49747;51.334;6.830;2022-12-07T00:35:16;12.30;;;7.75;;
63599;SDS011;49747;51.334;6.830;2022-12-07T00:37:42;10.30;;;7.20;;
63599;SDS011;49747;51.334;6.830;2022-12-07T00:40:09;12.38;;;7.75;;
63599;SDS011;49747;51.334;6.830;2022-12-07T00:42:36;10.00;;;6.70;;
63599;SDS011;49747;51.334;6.830;2022-12-07T00:45:02;11.20;;;7.05;;
63599;SDS011;49747;51.334;6.830;2022-12-07T00:47:29;9.65;;;6.10;;
63599;SDS011;49747;51.334;6.830;2022-12-07T00:49:55;13.68;;;7.35;;
63599;SDS011;49747;51.334;6.830;2022-12-07T00:52:22;11.45;;;7.00;;
63599;SDS011;49747;51.334;6.830;2022-12-07T00:54:48;10.40;;;7.28;;
63599;SDS011;49747;51.334;6.830;2022-12-07T00:57:15;10.35;;;7.00;;
63599;SDS011;49747;51.334;6.830;2022-12-07T00:59:41;11.25;;;6.90;;
63599;SDS011;49747;51.334;6.830;2022-12-07T01:02:08;13.55;;;7.53;;
63599;SDS011;49747;51.334;6.830;2022-12-07T01:04:34;11.55;;;7.50;;
63599;SDS011;49747;51.334;6.830;2022-12-07T01:07:01;15.93;;;7.43;;
63599;SDS011;49747;51.334;6.830;2022-12-07T01:09:28;11.93;;;8.10;;
63599;SDS011;49747;51.334;6.830;2022-12-07T01:11:54;11.05;;;7.22;;
63599;SDS011;49747;51.334;6.830;2022-12-07T01:14:20;13.35;;;8.13;;
63599;SDS011;49747;51.334;6.830;2022-12-07T01:16:47;12.55;;;7.47;;
63599;SDS011;49747;51.334;6.830;2022-12-07T01:19:13;9.80;;;7.03;;
63599;SDS011;49747;51.334;6.830;2022-12-07T01:21:40;11.75;;;7.43;;
63599;SDS011;49747;51.334;6.830;2022-12-07T01:24:07;10.57;;;7.00;;
63599;SDS011;49747;51.334;6.830;2022-12-07T01:26:36;12.63;;;7.65;;
63599;SDS011;49747;51.334;6.830;2022-12-07T01:29:02;9.68;;;6.85;;
63599;SDS011;49747;51.334;6.830;2022-12-07T01:31:29;11.00;;;7.55;;
63599;SDS011;49747;51.334;6.830;2022-12-07T01:33:57;11.60;;;7.63;;
63599;SDS011;49747;51.334;6.830;2022-12-07T01:36:26;10.43;;;7.20;;
63599;SDS011;49747;51.334;6.830;2022-12-07T01:38:58;9.82;;;7.22;;
63599;SDS011;49747;51.334;6.830;2022-12-07T01:41:31;9.25;;;6.90;;
63599;SDS011;49747;51.334;6.830;2022-12-07T01:46:56;12.00;;;8.52;;
63599;SDS011;49747;51.334;6.830;2022-12-07T01:49:33;12.10;;;7.90;;
63599;SDS011;49747;51.334;6.830;2022-12-07T01:52:20;11.77;;;6.80;;
63599;SDS011;49747;51.334;6.830;2022-12-07T01:54:57;9.82;;;7.70;;
63599;SDS011;49747;51.334;6.830;2022-12-07T01:57:27;10.98;;;7.57;;
63599;SDS011;49747;51.334;6.830;2022-12-07T01:59:56;10.80;;;7.15;;
63599;SDS011;49747;51.334;6.830;2022-12-07T02:02:39;13.40;;;7.70;;
63599;SDS011;49747;51.334;6.830;2022-12-07T02:05:12;11.45;;;7.13;;
63599;SDS011;49747;51.334;6.830;2022-12-07T02:07:39;10.50;;;7.10;;
63599;SDS011;49747;51.334;6.830;2022-12-07T02:12:43;11.23;;;7.20;;
63599;SDS011;49747;51.334;6.830;2022-12-07T02:15:12;9.80;;;6.72;;
63599;SDS011;49747;51.334;6.830;2022-12-07T02:17:49;12.40;;;7.80;;
63599;SDS011;49747;51.334;6.830;2022-12-07T02:20:26;12.75;;;7.10;;
63599;SDS011;49747;51.334;6.830;2022-12-07T02:29:10;13.65;;;7.55;;
63599;SDS011;49747;51.334;6.830;2022-12-07T02:31:41;11.82;;;7.60;;
63599;SDS011;49747;51.334;6.830;2022-12-07T02:34:19;9.57;;;7.00;;
63599;SDS011;49747;51.334;6.830;2022-12-07T02:36:54;13.77;;;7.93;;
63599;SDS011;49747;51.334;6.830;2022-12-07T02:39:34;14.70;;;7.22;;
63599;SDS011;49747;51.334;6.830;2022-12-07T02:44:39;8.73;;;6.38;;
63599;SDS011;49747;51.334;6.830;2022-12-07T02:47:07;13.32;;;7.32;;
63599;SDS011;49747;51.334;6.830;2022-12-07T02:49:37;9.68;;;6.80;;
63599;SDS011;49747;51.334;6.830;2022-12-07T02:52:06;15.15;;;7.70;;
63599;SDS011;49747;51.334;6.830;2022-12-07T02:54:32;11.90;;;7.38;;
63599;SDS011;49747;51.334;6.830;2022-12-07T03:08:14;12.38;;;7.50;;
63599;SDS011;49747;51.334;6.830;2022-12-07T03:11:14;10.10;;;6.75;;
63599;SDS011;49747;51.334;6.830;2022-12-07T03:13:54;13.35;;;7.32;;
63599;SDS011;49747;51.334;6.830;2022-12-07T03:16:35;11.75;;;7.60;;
63599;SDS011;49747;51.334;6.830;2022-12-07T03:19:18;12.50;;;7.50;;
63599;SDS011;49747;51.334;6.830;2022-12-07T03:21:49;11.57;;;7.13;;
63599;SDS011;49747;51.334;6.830;2022-12-07T03:24:24;11.65;;;7.45;;
63599;SDS011;49747;51.334;6.830;2022-12-07T03:27:07;11.82;;;7.47;;
63599;SDS011;49747;51.334;6.830;2022-12-07T03:29:47;9.90;;;6.63;;
63599;SDS011;49747;51.334;6.830;2022-12-07T03:32:26;12.13;;;7.03;;
63599;SDS011;49747;51.334;6.830;2022-12-07T03:40:11;11.02;;;7.03;;
63599;SDS011;49747;51.334;6.830;2022-12-07T03:42:43;13.05;;;8.50;;
63599;SDS011;49747;51.334;6.830;2022-12-07T03:45:10;12.45;;;7.97;;
63599;SDS011;49747;51.334;6.830;2022-12-07T03:50:57;11.57;;;7.22;;
63599;SDS011;49747;51.334;6.830;2022-12-07T03:54:17;11.45;;;7.78;;
63599;SDS011;49747;51.334;6.830;2022-12-07T03:56:28;11.85;;;7.40;;
63599;SDS011;49747;51.334;6.830;2022-12-07T03:58:55;12.18;;;7.15;;
63599;SDS011;49747;51.334;6.830;2022-12-07T04:01:22;10.18;;;6.68;;
63599;SDS011;49747;51.334;6.830;2022-12-07T04:03:49;11.50;;;7.43;;
63599;SDS011;49747;51.334;6.830;2022-12-07T04:06:16;11.30;;;6.93;;
63599;SDS011;49747;51.334;6.830;2022-12-07T04:08:42;12.88;;;7.43;;
63599;SDS011;49747;51.334;6.830;2022-12-07T04:11:09;13.20;;;7.35;;
63599;SDS011;49747;51.334;6.830;2022-12-07T04:13:35;11.68;;;6.90;;
63599;SDS011;49747;51.334;6.830;2022-12-07T04:16:21;9.90;;;6.75;;
63599;SDS011;49747;51.334;6.830;2022-12-07T04:18:48;11.73;;;7.55;;
63599;SDS011;49747;51.334;6.830;2022-12-07T04:21:14;13.30;;;7.72;;
63599;SDS011;49747;51.334;6.830;2022-12-07T04:23:41;12.70;;;7.35;;
63599;SDS011;49747;51.334;6.830;2022-12-07T04:26:07;11.43;;;7.28;;
63599;SDS011;49747;51.334;6.830;2022-12-07T04:28:34;10.82;;;7.18;;
63599;SDS011;49747;51.334;6.830;2022-12-07T04:31:01;11.10;;;7.88;;
63599;SDS011;49747;51.334;6.830;2022-12-07T04:33:27;10.35;;;7.57;;
63599;SDS011;49747;51.334;6.830;2022-12-07T04:35:54;11.68;;;7.50;;
63599;SDS011;49747;51.334;6.830;2022-12-07T04:38:20;10.15;;;6.80;;
63599;SDS011;49747;51.334;6.830;2022-12-07T04:40:47;10.02;;;7.13;;
63599;SDS011;49747;51.334;6.830;2022-12-07T04:43:13;10.07;;;7.10;;
63599;SDS011;49747;51.334;6.830;2022-12-07T04:45:40;11.20;;;7.63;;
63599;SDS011;49747;51.334;6.830;2022-12-07T04:48:12;13.15;;;7.38;;
63599;SDS011;49747;51.334;6.830;2022-12-07T04:50:38;10.73;;;7.07;;
63599;SDS011;49747;51.334;6.830;2022-12-07T04:53:11;10.25;;;6.80;;
63599;SDS011;49747;51.334;6.830;2022-12-07T04:55:38;10.82;;;6.45;;
63599;SDS011;49747;51.334;6.830;2022-12-07T04:58:04;10.60;;;6.50;;
63599;SDS011;49747;51.334;6.830;2022-12-07T05:00:31;15.05;;;9.13;;
63599;SDS011;49747;51.334;6.830;2022-12-07T05:02:57;11.30;;;8.73;;
63599;SDS011;49747;51.334;6.830;2022-12-07T05:05:24;12.75;;;8.13;;
63599;SDS011;49747;51.334;6.830;2022-12-07T05:07:52;11.25;;;8.32;;
63599;SDS011;49747;51.334;6.830;2022-12-07T05:10:19;13.13;;;8.27;;
63599;SDS011;49747;51.334;6.830;2022-12-07T05:12:47;15.23;;;8.65;;
63599;SDS011;49747;51.334;6.830;2022-12-07T05:15:14;17.42;;;9.55;;
63599;SDS011;49747;51.334;6.830;2022-12-07T05:17:41;17.20;;;8.82;;
63599;SDS011;49747;51.334;6.830;2022-12-07T05:20:08;13.13;;;8.57;;
63599;SDS011;49747;51.334;6.830;2022-12-07T05:22:35;12.75;;;8.27;;
63599;SDS011;49747;51.334;6.830;2022-12-07T05:25:03;15.77;;;8.45;;
63599;SDS011;49747;51.334;6.830;2022-12-07T05:27:31;11.13;;;7.78;;
63599;SDS011;49747;51.334;6.830;2022-12-07T05:29:59;12.02;;;7.97;;
63599;SDS011;49747;51.334;6.830;2022-12-07T05:32:26;13.02;;;7.97;;
63599;SDS011;49747;51.334;6.830;2022-12-07T05:34:53;15.70;;;7.63;;
63599;SDS011;49747;51.334;6.830;2022-12-07T05:37:21;10.18;;;7.38;;
63599;SDS011;49747;51.334;6.830;2022-12-07T05:39:47;13.10;;;8.15;;
63599;SDS011;49747;51.334;6.830;2022-12-07T05:42:14;13.27;;;7.70;;
63599;SDS011;49747;51.334;6.830;2022-12-07T05:44:41;12.40;;;7.55;;
63599;SDS011;49747;51.334;6.830;2022-12-07T05:49:37;12.95;;;8.13;;
63599;SDS011;49747;51.334;6.830;2022-12-07T05:52:04;15.15;;;7.82;;
63599;SDS011;49747;51.334;6.830;2022-12-07T05:54:32;13.52;;;7.93;;
63599;SDS011;49747;51.334;6.830;2022-12-07T05:56:59;15.25;;;7.63;;
63599;SDS011;49747;51.334;6.830;2022-12-07T05:59:25;13.00;;;7.57;;
63599;SDS011;49747;51.334;6.830;2022-12-07T06:02:01;15.00;;;7.20;;
63599;SDS011;49747;51.334;6.830;2022-12-07T06:04:30;13.70;;;7.43;;
63599;SDS011;49747;51.334;6.830;2022-12-07T06:07:00;11.77;;;7.45;;
63599;SDS011;49747;51.334;6.830;2022-12-07T06:09:27;13.77;;;7.65;;
63599;SDS011;49747;51.334;6.830;2022-12-07T06:11:54;19.40;;;7.53;;
63599;SDS011;49747;51.334;6.830;2022-12-07T06:14:41;12.23;;;6.93;;
63599;SDS011;49747;51.334;6.830;2022-12-07T06:17:08;12.30;;;6.93;;
63599;SDS011;49747;51.334;6.830;2022-12-07T06:19:35;11.02;;;6.55;;
63599;SDS011;49747;51.334;6.830;2022-12-07T06:22:02;13.05;;;6.78;;
63599;SDS011;49747;51.334;6.830;2022-12-07T06:24:31;10.75;;;6.85;;
63599;SDS011;49747;51.334;6.830;2022-12-07T06:26:59;10.90;;;7.07;;
63599;SDS011;49747;51.334;6.830;2022-12-07T06:29:25;13.65;;;7.18;;
63599;SDS011;49747;51.334;6.830;2022-12-07T06:31:53;16.27;;;6.75;;
63599;SDS011;49747;51.334;6.830;2022-12-07T06:34:20;10.00;;;6.47;;
63599;SDS011;49747;51.334;6.830;2022-12-07T06:36:51;10.90;;;6.03;;
63599;SDS011;49747;51.334;6.830;2022-12-07T06:39:27;11.35;;;5.90;;
63599;SDS011;49747;51.334;6.830;2022-12-07T06:41:54;13.57;;;7.60;;
63599;SDS011;49747;51.334;6.830;2022-12-07T06:44:22;12.68;;;6.80;;
63599;SDS011;49747;51.334;6.830;2022-12-07T06:46:49;12.52;;;6.47;;
63599;SDS011;49747;51.334;6.830;2022-12-07T06:49:21;11.73;;;6.10;;
63599;SDS011;49747;51.334;6.830;2022-12-07T06:51:47;12.80;;;6.60;;
63599;SDS011;49747;51.334;6.830;2022-12-07T06:54:14;14.32;;;6.65;;
63599;SDS011;49747;51.334;6.830;2022-12-07T06:56:41;12.45;;;6.28;;
63599;SDS011;49747;51.334;6.830;2022-12-07T06:59:08;15.30;;;6.67;;
63599;SDS011;49747;51.334;6.830;2022-12-07T07:01:36;13.65;;;6.45;;
63599;SDS011;49747;51.334;6.830;2022-12-07T07:04:03;13.55;;;6.32;;
63599;SDS011;49747;51.334;6.830;2022-12-07T07:06:30;12.75;;;6.32;;
63599;SDS011;49747;51.334;6.830;2022-12-07T07:08:57;12.93;;;6.97;;
63599;SDS011;49747;51.334;6.830;2022-12-07T07:11:23;15.40;;;6.68;;
63599;SDS011;49747;51.334;6.830;2022-12-07T07:13:52;12.65;;;6.63;;
63599;SDS011;49747;51.334;6.830;2022-12-07T07:16:19;11.23;;;6.35;;
63599;SDS011;49747;51.334;6.830;2022-12-07T07:18:46;12.15;;;6.03;;
63599;SDS011;49747;51.334;6.830;2022-12-07T07:21:14;11.65;;;6.57;;
63599;SDS011;49747;51.334;6.830;2022-12-07T07:23:43;12.35;;;6.70;;
63599;SDS011;49747;51.334;6.830;2022-12-07T07:26:09;13.60;;;7.55;;
63599;SDS011;49747;51.334;6.830;2022-12-07T07:28:38;13.85;;;6.78;;
63599;SDS011;49747;51.334;6.830;2022-12-07T07:31:05;11.40;;;6.53;;
63599;SDS011;49747;51.334;6.830;2022-12-07T07:33:32;17.63;;;7.30;;
63599;SDS011;49747;51.334;6.830;2022-12-07T07:35:58;13.35;;;6.60;;
63599;SDS011;49747;51.334;6.830;2022-12-07T07:38:25;10.52;;;6.05;;
63599;SDS011;49747;51.334;6.830;2022-12-07T07:40:52;13.40;;;6.60;;
63599;SDS011;49747;51.334;6.830;2022-12-07T07:43:18;13.20;;;7.80;;
63599;SDS011;49747;51.334;6.830;2022-12-07T07:45:45;14.00;;;7.57;;
63599;SDS011;49747;51.334;6.830;2022-12-07T07:48:12;17.55;;;8.45;;
63599;SDS011;49747;51.334;6.830;2022-12-07T07:50:38;8.02;;;4.55;;
63599;SDS011;49747;51.334;6.830;2022-12-07T07:53:05;15.32;;;9.40;;
63599;SDS011;49747;51.334;6.830;2022-12-07T07:55:31;13.90;;;8.48;;
63599;SDS011;49747;51.334;6.830;2022-12-07T07:57:58;16.80;;;9.07;;
63599;SDS011;49747;51.334;6.830;2022-12-07T08:00:24;19.35;;;8.05;;
63599;SDS011;49747;51.334;6.830;2022-12-07T08:02:52;14.88;;;8.50;;
63599;SDS011;49747;51.334;6.830;2022-12-07T08:05:19;17.15;;;8.70;;
63599;SDS011;49747;51.334;6.830;2022-12-07T08:07:46;13.70;;;8.23;;
63599;SDS011;49747;51.334;6.830;2022-12-07T08:10:13;16.42;;;9.10;;
63599;SDS011;49747;51.334;6.830;2022-12-07T08:12:41;15.68;;;9.75;;
63599;SDS011;49747;51.334;6.830;2022-12-07T08:15:28;17.10;;;7.93;;
63599;SDS011;49747;51.334;6.830;2022-12-07T08:17:56;14.50;;;7.85;;
63599;SDS011;49747;51.334;6.830;2022-12-07T08:20:22;15.32;;;7.03;;
63599;SDS011;49747;51.334;6.830;2022-12-07T08:22:49;13.48;;;7.55;;
63599;SDS011;49747;51.334;6.830;2022-12-07T08:25:15;11.98;;;7.45;;
63599;SDS011;49747;51.334;6.830;2022-12-07T08:27:42;14.50;;;7.22;;
63599;SDS011;49747;51.334;6.830;2022-12-07T08:30:09;10.95;;;7.03;;
63599;SDS011;49747;51.334;6.830;2022-12-07T08:32:35;15.23;;;7.30;;
63599;SDS011;49747;51.334;6.830;2022-12-07T08:35:02;10.77;;;6.60;;
63599;SDS011;49747;51.334;6.830;2022-12-07T08:37:29;12.75;;;6.40;;
63599;SDS011;49747;51.334;6.830;2022-12-07T08:39:56;10.38;;;6.20;;
63599;SDS011;49747;51.334;6.830;2022-12-07T08:42:22;9.63;;;6.28;;
63599;SDS011;49747;51.334;6.830;2022-12-07T08:44:53;8.23;;;5.72;;
63599;SDS011;49747;51.334;6.830;2022-12-07T08:47:20;10.85;;;5.65;;
63599;SDS011;49747;51.334;6.830;2022-12-07T08:49:47;9.18;;;6.55;;
63599;SDS011;49747;51.334;6.830;2022-12-07T08:52:16;8.57;;;5.88;;
63599;SDS011;49747;51.334;6.830;2022-12-07T08:54:43;11.18;;;6.00;;
63599;SDS011;49747;51.334;6.830;2022-12-07T08:57:11;10.60;;;6.05;;
63599;SDS011;49747;51.334;6.830;2022-12-07T08:59:37;7.20;;;5.55;;
63599;SDS011;49747;51.334;6.830;2022-12-07T09:02:04;10.27;;;5.72;;
63599;SDS011;49747;51.334;6.830;2022-12-07T09:04:32;8.48;;;5.68;;
63599;SDS011;49747;51.334;6.830;2022-12-07T09:06:59;10.35;;;5.60;;
63599;SDS011;49747;51.334;6.830;2022-12-07T09:09:27;10.65;;;6.13;;
63599;SDS011;49747;51.334;6.830;2022-12-07T09:11:53;9.13;;;6.13;;
63599;SDS011;49747;51.334;6.830;2022-12-07T09:14:22;12.90;;;5.32;;
63599;SDS011;49747;51.334;6.830;2022-12-07T09:16:48;9.70;;;4.97;;
63599;SDS011;49747;51.334;6.830;2022-12-07T09:19:15;8.77;;;4.90;;
63599;SDS011;49747;51.334;6.830;2022-12-07T09:21:42;7.65;;;4.90;;
63599;SDS011;49747;51.334;6.830;2022-12-07T09:24:09;7.68;;;5.40;;
63599;SDS011;49747;51.334;6.830;2022-12-07T09:26:35;9.73;;;5.60;;
63599;SDS011;49747;51.334;6.830;2022-12-07T09:29:03;12.30;;;5.43;;
63599;SDS011;49747;51.334;6.830;2022-12-07T09:31:30;8.63;;;4.43;;
63599;SDS011;49747;51.334;6.830;2022-12-07T09:33:57;8.27;;;4.38;;
63599;SDS011;49747;51.334;6.830;2022-12-07T09:36:27;7.13;;;4.20;;
63599;SDS011;49747;51.334;6.830;2022-12-07T09:38:55;9.73;;;5.05;;
63599;SDS011;49747;51.334;6.830;2022-12-07T09:41:22;6.97;;;5.07;;
63599;SDS011;49747;51.334;6.830;2022-12-07T09:43:52;9.63;;;4.68;;
63599;SDS011;49747;51.334;6.830;2022-12-07T09:46:24;7.97;;;4.68;;
63599;SDS011;49747;51.334;6.830;2022-12-07T09:48:51;11.55;;;4.60;;
63599;SDS011;49747;51.334;6.830;2022-12-07T09:51:21;7.97;;;4.30;;
63599;SDS011;49747;51.334;6.830;2022-12-07T09:53:52;9.68;;;4.63;;
63599;SDS011;49747;51.334;6.830;2022-12-07T09:56:20;8.48;;;4.45;;
63599;SDS011;49747;51.334;6.830;2022-12-07T09:58:48;12.55;;;4.35;;
63599;SDS011;49747;51.334;6.830;2022-12-07T10:01:18;8.02;;;3.67;;
63599;SDS011;49747;51.334;6.830;2022-12-07T10:03:55;9.88;;;4.10;;
63599;SDS011;49747;51.334;6.830;2022-12-07T10:06:28;8.85;;;4.32;;
63599;SDS011;49747;51.334;6.830;2022-12-07T10:08:54;9.13;;;3.88;;
63599;SDS011;49747;51.334;6.830;2022-12-07T10:11:21;15.95;;;4.20;;
63599;SDS011;49747;51.334;6.830;2022-12-07T10:13:49;7.03;;;3.75;;
63599;SDS011;49747;51.334;6.830;2022-12-07T10:19:16;6.97;;;3.88;;
63599;SDS011;49747;51.334;6.830;2022-12-07T10:24:28;8.25;;;4.07;;
63599;SDS011;49747;51.334;6.830;2022-12-07T10:26:55;12.75;;;5.93;;
63599;SDS011;49747;51.334;6.830;2022-12-07T10:29:33;14.20;;;6.20;;
63599;SDS011;49747;51.334;6.830;2022-12-07T10:32:04;8.07;;;4.50;;
63599;SDS011;49747;51.334;6.830;2022-12-07T10:34:36;7.97;;;4.70;;
63599;SDS011;49747;51.334;6.830;2022-12-07T10:42:25;10.25;;;4.70;;
63599;SDS011;49747;51.334;6.830;2022-12-07T10:53:11;13.63;;;6.63;;
63599;SDS011;49747;51.334;6.830;2022-12-07T11:10:26;13.57;;;5.15;;
63599;SDS011;49747;51.334;6.830;2022-12-07T11:16:07;13.60;;;5.05;;
63599;SDS011;49747;51.334;6.830;2022-12-07T11:19:19;9.27;;;4.63;;
63599;SDS011;49747;51.334;6.830;2022-12-07T11:21:58;11.55;;;4.22;;
63599;SDS011;49747;51.334;6.830;2022-12-07T11:24:32;9.82;;;4.15;;
63599;SDS011;49747;51.334;6.830;2022-12-07T11:27:30;10.25;;;4.57;;
63599;SDS011;49747;51.334;6.830;2022-12-07T11:38:43;6.25;;;3.55;;
63599;SDS011;49747;51.334;6.830;2022-12-07T11:41:19;11.15;;;4.45;;
63599;SDS011;49747;51.334;6.830;2022-12-07T11:43:59;7.15;;;3.75;;
63599;SDS011;49747;51.334;6.830;2022-12-07T11:46:55;7.75;;;3.50;;
63599;SDS011;49747;51.334;6.830;2022-12-07T11:49:47;5.70;;;3.03;;
63599;SDS011;49747;51.334;6.830;2022-12-07T11:55:06;8.35;;;3.50;;
63599;SDS011;49747;51.334;6.830;2022-12-07T11:57:46;7.20;;;3.35;;
63599;SDS011;49747;51.334;6.830;2022-12-07T12:00:18;10.32;;;3.15;;
63599;SDS011;49747;51.334;6.830;2022-12-07T12:03:13;7.45;;;2.75;;
63599;SDS011;49747;51.334;6.830;2022-12-07T12:05:46;6.53;;;3.05;;
63599;SDS011;49747;51.334;6.830;2022-12-07T12:08:17;6.82;;;3.08;;
63599;SDS011;49747;51.334;6.830;2022-12-07T12:22:13;8.98;;;3.33;;
63599;SDS011;49747;51.334;6.830;2022-12-07T12:24:49;6.65;;;3.00;;
63599;SDS011;49747;51.334;6.830;2022-12-07T12:27:33;8.48;;;2.85;;
63599;SDS011;49747;51.334;6.830;2022-12-07T12:30:04;5.22;;;2.50;;
63599;SDS011;49747;51.334;6.830;2022-12-07T12:32:40;4.47;;;2.50;;
63599;SDS011;49747;51.334;6.830;2022-12-07T12:35:20;5.50;;;2.70;;
63599;SDS011;49747;51.334;6.830;2022-12-07T12:40:56;8.88;;;2.72;;
63599;SDS011;49747;51.334;6.830;2022-12-07T12:54:20;8.75;;;2.97;;
63599;SDS011;49747;51.334;6.830;2022-12-07T12:59:36;4.13;;;2.03;;
63599;SDS011;49747;51.334;6.830;2022-12-07T13:05:33;2.92;;;1.00;;
63599;SDS011;49747;51.334;6.830;2022-12-07T13:15:42;2.58;;;1.60;;
63599;SDS011;49747;51.334;6.830;2022-12-07T13:28:47;4.78;;;1.95;;
63599;SDS011;49747;51.334;6.830;2022-12-07T13:31:33;5.68;;;2.17;;
63599;SDS011;49747;51.334;6.830;2022-12-07T13:34:03;6.93;;;2.50;;
63599;SDS011;49747;51.334;6.830;2022-12-07T13:36:37;9.65;;;2.50;;
63599;SDS011;49747;51.334;6.830;2022-12-07T13:41:41;5.28;;;3.05;;
63599;SDS011;49747;51.334;6.830;2022-12-07T13:44:10;6.50;;;2.90;;
63599;SDS011;49747;51.334;6.830;2022-12-07T13:49:51;8.48;;;3.13;;
63599;SDS011;49747;51.334;6.830;2022-12-07T13:52:21;2.40;;;1.35;;
63599;SDS011;49747;51.334;6.830;2022-12-07T13:55:08;7.95;;;2.35;;
63599;SDS011;49747;51.334;6.830;2022-12-07T13:57:41;8.38;;;2.63;;
63599;SDS011;49747;51.334;6.830;2022-12-07T14:00:15;4.88;;;2.10;;
63599;SDS011;49747;51.334;6.830;2022-12-07T14:05:42;7.47;;;2.08;;
63599;SDS011;49747;51.334;6.830;2022-12-07T14:18:48;6.82;;;2.15;;
63599;SDS011;49747;51.334;6.830;2022-12-07T14:21:16;3.80;;;1.98;;
63599;SDS011;49747;51.334;6.830;2022-12-07T14:23:45;5.85;;;1.75;;
63599;SDS011;49747;51.334;6.830;2022-12-07T14:26:37;6.65;;;2.15;;
63599;SDS011;49747;51.334;6.830;2022-12-07T14:29:18;6.07;;;1.88;;
63599;SDS011;49747;51.334;6.830;2022-12-07T14:31:48;9.73;;;1.92;;
63599;SDS011;49747;51.334;6.830;2022-12-07T14:34:15;6.65;;;1.98;;
63599;SDS011;49747;51.334;6.830;2022-12-07T14:36:41;6.68;;;2.25;;
63599;SDS011;49747;51.334;6.830;2022-12-07T14:39:09;10.20;;;1.60;;
63599;SDS011;49747;51.334;6.830;2022-12-07T14:41:39;7.43;;;2.17;;
63599;SDS011;49747;51.334;6.830;2022-12-07T14:44:21;5.43;;;1.75;;
63599;SDS011;49747;51.334;6.830;2022-12-07T14:46:54;5.63;;;1.70;;
63599;SDS011;49747;51.334;6.830;2022-12-07T14:49:42;2.90;;;1.83;;
63599;SDS011;49747;51.334;6.830;2022-12-07T14:52:11;7.72;;;1.80;;
63599;SDS011;49747;51.334;6.830;2022-12-07T14:55:07;10.52;;;2.80;;
63599;SDS011;49747;51.334;6.830;2022-12-07T15:00:06;8.57;;;2.40;;
63599;SDS011;49747;51.334;6.830;2022-12-07T15:02:34;9.30;;;2.38;;
63599;SDS011;49747;51.334;6.830;2022-12-07T15:05:01;7.15;;;2.70;;
63599;SDS011;49747;51.334;6.830;2022-12-07T15:07:28;8.13;;;2.38;;
63599;SDS011;49747;51.334;6.830;2022-12-07T15:09:54;7.97;;;3.80;;
63599;SDS011;49747;51.334;6.830;2022-12-07T15:12:21;10.15;;;3.55;;
63599;SDS011;49747;51.334;6.830;2022-12-07T15:14:48;8.35;;;4.20;;
63599;SDS011;49747;51.334;6.830;2022-12-07T15:17:14;9.98;;;4.35;;
63599;SDS011;49747;51.334;6.830;2022-12-07T15:19:55;10.20;;;3.53;;
63599;SDS011;49747;51.334;6.830;2022-12-07T15:22:22;9.73;;;3.10;;
63599;SDS011;49747;51.334;6.830;2022-12-07T15:24:52;7.35;;;3.50;;
63599;SDS011;49747;51.334;6.830;2022-12-07T15:27:18;8.55;;;3.47;;
63599;SDS011;49747;51.334;6.830;2022-12-07T15:29:45;9.77;;;3.70;;
63599;SDS011;49747;51.334;6.830;2022-12-07T15:32:12;9.15;;;3.80;;
63599;SDS011;49747;51.334;6.830;2022-12-07T15:34:38;9.25;;;3.83;;
63599;SDS011;49747;51.334;6.830;2022-12-07T15:37:06;7.10;;;3.72;;
63599;SDS011;49747;51.334;6.830;2022-12-07T15:39:34;7.30;;;3.65;;
63599;SDS011;49747;51.334;6.830;2022-12-07T15:42:02;11.82;;;4.00;;
63599;SDS011;49747;51.334;6.830;2022-12-07T15:44:29;8.77;;;4.10;;
63599;SDS011;49747;51.334;6.830;2022-12-07T15:47:14;8.98;;;3.67;;
63599;SDS011;49747;51.334;6.830;2022-12-07T15:49:40;8.73;;;3.58;;
63599;SDS011;49747;51.334;6.830;2022-12-07T15:52:07;8.35;;;3.80;;
63599;SDS011;49747;51.334;6.830;2022-12-07T15:57:02;6.95;;;3.75;;
63599;SDS011;49747;51.334;6.830;2022-12-07T15:59:29;9.43;;;4.53;;
63599;SDS011;49747;51.334;6.830;2022-12-07T16:01:56;8.57;;;3.92;;
63599;SDS011;49747;51.334;6.830;2022-12-07T16:04:23;10.32;;;4.10;;
63599;SDS011;49747;51.334;6.830;2022-12-07T16:06:49;6.28;;;3.47;;
63599;SDS011;49747;51.334;6.830;2022-12-07T16:09:17;7.22;;;3.75;;
63599;SDS011;49747;51.334;6.830;2022-12-07T16:11:44;9.55;;;4.00;;
63599;SDS011;49747;51.334;6.830;2022-12-07T16:14:11;7.35;;;3.22;;
63599;SDS011;49747;51.334;6.830;2022-12-07T16:16:38;7.85;;;3.20;;
63599;SDS011;49747;51.334;6.830;2022-12-07T16:19:07;6.65;;;3.10;;
63599;SDS011;49747;51.334;6.830;2022-12-07T16:21:34;5.10;;;3.20;;
63599;SDS011;49747;51.334;6.830;2022-12-07T16:24:01;7.85;;;3.00;;
63599;SDS011;49747;51.334;6.830;2022-12-07T16:26:29;8.65;;;3.72;;
63599;SDS011;49747;51.334;6.830;2022-12-07T16:28:56;8.65;;;3.53;;
63599;SDS011;49747;51.334;6.830;2022-12-07T16:31:24;8.80;;;3.85;;
63599;SDS011;49747;51.334;6.830;2022-12-07T16:36:19;12.20;;;3.80;;
63599;SDS011;49747;51.334;6.830;2022-12-07T16:39:08;8.02;;;3.80;;
63599;SDS011;49747;51.334;6.830;2022-12-07T16:41:35;7.97;;;3.42;;
63599;SDS011;49747;51.334;6.830;2022-12-07T16:44:06;11.95;;;3.45;;
63599;SDS011;49747;51.334;6.830;2022-12-07T16:46:36;7.50;;;3.28;;
63599;SDS011;49747;51.334;6.830;2022-12-07T16:49:03;9.55;;;3.53;;
63599;SDS011;49747;51.334;6.830;2022-12-07T16:51:30;9.77;;;3.42;;
63599;SDS011;49747;51.334;6.830;2022-12-07T16:54:00;6.43;;;3.20;;
63599;SDS011;49747;51.334;6.830;2022-12-07T16:56:27;10.10;;;3.17;;
63599;SDS011;49747;51.334;6.830;2022-12-07T16:58:57;11.00;;;3.35;;
63599;SDS011;49747;51.334;6.830;2022-12-07T17:01:25;6.13;;;3.17;;
63599;SDS011;49747;51.334;6.830;2022-12-07T17:03:54;8.10;;;2.97;;
63599;SDS011;49747;51.334;6.830;2022-12-07T17:06:23;7.03;;;3.58;;
63599;SDS011;49747;51.334;6.830;2022-12-07T17:08:54;9.88;;;3.97;;
63599;SDS011;49747;51.334;6.830;2022-12-07T17:11:48;14.02;;;3.35;;
63599;SDS011;49747;51.334;6.830;2022-12-07T17:14:16;9.20;;;3.22;;
63599;SDS011;49747;51.334;6.830;2022-12-07T17:17:15;9.48;;;3.67;;
63599;SDS011;49747;51.334;6.830;2022-12-07T17:19:48;8.18;;;3.88;;
63599;SDS011;49747;51.334;6.830;2022-12-07T17:22:24;8.25;;;4.78;;
63599;SDS011;49747;51.334;6.830;2022-12-07T17:28:36;10.48;;;4.60;;
63599;SDS011;49747;51.334;6.830;2022-12-07T17:31:21;9.40;;;4.20;;
63599;SDS011;49747;51.334;6.830;2022-12-07T17:33:55;10.52;;;5.00;;
63599;SDS011;49747;51.334;6.830;2022-12-07T17:36:43;7.70;;;4.18;;
63599;SDS011;49747;51.334;6.830;2022-12-07T17:39:50;9.35;;;5.15;;
63599;SDS011;49747;51.334;6.830;2022-12-07T17:43:06;11.38;;;4.50;;
63599;SDS011;49747;51.334;6.830;2022-12-07T17:45:33;5.20;;;1.40;;
63599;SDS011;49747;51.334;6.830;2022-12-07T17:48:00;5.07;;;2.45;;